Terminal Aerodrome Forecast
Issued by NWS

Home | Current Version | Previous Version | Text Only | Print | Product List | Glossary Off
Versions: 1 2 3 4 5 6 7 8 9 10 11 12 13 14

000
FTUS43 KUNR 221700
TAFGCC
TAF
KGCC 221720Z 2218/2318 23022G33KT P6SM BKN100
     FM230000 29015G25KT P6SM -SHRASN BKN050
     FM230500 30015G25KT P6SM BKN150
     FM231500 31025G35KT P6SM BKN050=

USA.gov is the U.S. government's official web portal to all federal, state and local government web resources and services.